Fort Scott Camps, Ohio
Current Conditions -  °F | °C
As of 11:55 AM on Thursday 25 Dec 2014 (Local Time) from KI67 Reporting Station
Overcast Overcast  
Wind Chill: 34°   Ceiling: 2600
Heat Index: 39°   Visibility: 10mi
Dew Point: 32°   Wind: 8mph
Humidity: 75%   Direction: 250°WSW
Pressure: 30.13"   Gusts: NA
Location:  39.2734°N, 84.7476°W
Report Text: KI67 251655Z AUTO 25007KT 10SM OVC026 04/00 A3013 RMK AO1
Loading
Personal Weather Stations






























Interactive Weather Map New forecast layout! Learn more

10-Day Weather Forecast

Advertisements
Track Severe Weather on mobile